Sunday, November 18, 2018, 2:22 PM GMT
Back to Local

CYOY, Valcartier Airport

Location: , , Canada Lat: 46.9
Local Time: 2:22 PM GMT (14:22 GMT) Lon: -71.5
Time Zone: GMT Elev: 551 ft

Show me the last for .
Show Decoded

2018-11-18 14:00 METAR CYOY 181400Z AUTO 28005KT 9SM M10/M13 A3032 RMK ICG PAST HR SLP282 =
2018-11-18 13:00 METAR CYOY 181300Z AUTO 24002KT 9SM M11/M13 A3032 RMK SLP280 =
2018-11-18 12:00 METAR CYOY 181200Z AUTO 28002KT 9SM M14/M16 A3030 RMK SLP273 =
2018-11-18 11:00 METAR CYOY 181100Z AUTO 21005KT 9SM M11/M13 A3027 RMK SLP264 =
2018-11-18 10:00 METAR CYOY 181000Z AUTO 24003KT 9SM M11/M13 A3025 RMK SLP256 =
2018-11-18 09:00 METAR CYOY 180900Z AUTO 30003KT 240V320 9SM M08/M12 A3023 RMK SLP250 =
2018-11-18 08:00 METAR CYOY 180800Z AUTO 30008KT 270V340 9SM M08/M12 A3021 RMK SLP241 =
2018-11-18 07:00 METAR CYOY 180700Z AUTO 25004KT 220V280 9SM M08/M11 A3020 RMK SLP238 =
2018-11-18 06:00 METAR CYOY 180600Z AUTO 00000KT 9SM M09/M11 A3018 RMK SLP230 =
2018-11-18 05:00 METAR CYOY 180500Z AUTO 28004KT 240V300 9SM M10/M12 A3016 RMK SLP227 =
2018-11-18 04:00 METAR CYOY 180400Z AUTO 12002KT 9SM M11/M13 A3014 RMK SLP221 =
2018-11-18 03:00 METAR CYOY 180300Z AUTO 00000KT 9SM M09/M11 A3012 RMK ICG PAST HR SLP214 =
2018-11-18 02:00 METAR CYOY 180200Z AUTO 00000KT 9SM M10/M11 A3010 RMK SLP205 =
2018-11-18 01:00 METAR CYOY 180100Z AUTO 34003KT 280V360 9SM M06/M09 A3007 RMK SLP196 =
2018-11-18 00:00 METAR CYOY 180000Z AUTO 29007KT 260V330 9SM M04/M08 A3004 RMK SLP185 =
2018-11-17 23:00 METAR CYOY 172300Z AUTO 24006KT 9SM M04/M07 A3002 RMK SLP177 =
2018-11-17 22:00 METAR CYOY 172200Z AUTO 27005KT 9SM M03/M07 A2998 RMK SLP165 =
2018-11-17 21:00 METAR CYOY 172100Z AUTO 26010G15KT 9SM M02/M06 A2996 RMK SLP155 =
2018-11-17 20:00 METAR CYOY 172000Z AUTO 27009KT 9SM M01/M05 A2991 RMK SLP141 =
2018-11-17 19:00 METAR CYOY 171900Z AUTO 25006KT 9SM M01/M03 A2989 RMK SLP135 =
2018-11-17 18:00 METAR CYOY 171800Z AUTO 24009KT 210V270 9SM M02/M04 A2989 RMK SLP132 =
2018-11-17 17:00 METAR CYOY 171700Z AUTO 24009KT 8SM M02/M04 A2988 RMK SLP130 =
2018-11-17 16:00 METAR CYOY 171600Z AUTO 23008KT 6SM M03/M04 A2987 RMK SLP127 =
2018-11-17 15:00 METAR CYOY 171500Z AUTO 23006KT 200V260 6SM M04/M05 A2987 RMK SLP126 =

Support USWX by starting your Amazon purchase here.